Time;durP1;ratioP1;P1;durP2;ratioP2;P2;SDS_P1;SDS_P2;PMS_P1;PMS_P2;Temp;Humidity;BMP_temperature;BMP_pressure;BME280_temperature;BME280_humidity;BME280_pressure;Samples;Min_cycle;Max_cycle;Signal;HPM_P1;HPM_P2
2024/01/19 00:00:38;;;;;;;22.92;11.30;;;;;;;;;;5091075;28;20418;-57
2024/01/19 00:03:05;;;;;;;22.47;12.03;;;;;;;;;;5091394;28;20382;-58
2024/01/19 00:05:30;;;;;;;23.48;11.77;;;;;;;;;;5090721;28;20390;-58
2024/01/19 00:07:57;;;;;;;20.33;11.23;;;;;;;;;;5091399;28;20425;-58
2024/01/19 00:10:22;;;;;;;19.60;10.90;;;;;;;;;;5087818;28;20377;-56
2024/01/19 00:12:48;;;;;;;20.27;10.82;;;;;;;;;;5086491;28;20855;-57
2024/01/19 00:15:14;;;;;;;19.10;10.63;;;;;;;;;;5090256;28;20417;-54
2024/01/19 00:17:40;;;;;;;20.42;10.90;;;;;;;;;;5090706;28;20390;-54
2024/01/19 00:20:10;;;;;;;19.58;10.90;;;;;;;;;;5090731;28;20382;-53
2024/01/19 00:22:36;;;;;;;16.58;9.75;;;;;;;;;;5090637;28;20396;-55
2024/01/19 00:25:02;;;;;;;19.85;10.68;;;;;;;;;;5094024;28;20393;-51
2024/01/19 00:27:29;;;;;;;17.05;9.45;;;;;;;;;;5090324;28;20381;-53
2024/01/19 00:29:55;;;;;;;16.40;10.07;;;;;;;;;;5089387;28;20493;-54
2024/01/19 00:32:21;;;;;;;18.20;9.85;;;;;;;;;;5090636;28;20444;-53
2024/01/19 00:34:47;;;;;;;18.30;10.32;;;;;;;;;;5089628;28;20375;-52
2024/01/19 00:37:14;;;;;;;19.67;11.20;;;;;;;;;;5090697;28;20375;-51
2024/01/19 00:39:40;;;;;;;16.80;9.63;;;;;;;;;;5090706;28;20412;-54
2024/01/19 00:42:07;;;;;;;19.30;9.93;;;;;;;;;;5104090;28;20384;-54
2024/01/19 00:44:33;;;;;;;18.80;9.63;;;;;;;;;;5107712;28;20399;-54
2024/01/19 00:46:59;;;;;;;19.60;10.40;;;;;;;;;;5089718;28;20493;-55
2024/01/19 00:49:25;;;;;;;17.30;9.88;;;;;;;;;;5090022;28;20492;-55
2024/01/19 00:51:51;;;;;;;19.77;10.20;;;;;;;;;;5090720;28;20385;-53
2024/01/19 00:54:17;;;;;;;20.17;10.70;;;;;;;;;;5089794;28;20747;-53
2024/01/19 00:56:43;;;;;;;20.88;10.13;;;;;;;;;;5089698;28;20431;-55
2024/01/19 00:59:09;;;;;;;18.53;10.93;;;;;;;;;;5090414;28;20390;-52
2024/01/19 01:01:35;;;;;;;20.75;10.60;;;;;;;;;;5090243;28;20401;-54
2024/01/19 01:04:02;;;;;;;19.55;10.75;;;;;;;;;;5092063;28;20405;-55
2024/01/19 01:06:29;;;;;;;18.63;10.50;;;;;;;;;;5077183;28;20418;-54
2024/01/19 01:08:55;;;;;;;17.48;10.70;;;;;;;;;;5094359;28;20425;-55
2024/01/19 01:11:21;;;;;;;18.80;10.60;;;;;;;;;;5094159;28;20732;-55
2024/01/19 01:13:47;;;;;;;19.23;11.32;;;;;;;;;;5094163;28;20401;-55
2024/01/19 01:16:13;;;;;;;17.55;10.88;;;;;;;;;;5083857;28;20385;-54
2024/01/19 01:18:40;;;;;;;16.77;10.13;;;;;;;;;;5092203;28;20393;-53
2024/01/19 01:21:07;;;;;;;19.85;10.55;;;;;;;;;;5089508;28;20798;-55
2024/01/19 01:23:33;;;;;;;19.48;10.20;;;;;;;;;;5092856;28;20913;-55
2024/01/19 01:25:59;;;;;;;17.13;9.85;;;;;;;;;;5092363;28;20394;-49
2024/01/19 01:28:25;;;;;;;20.50;10.40;;;;;;;;;;5092271;28;20418;-50
2024/01/19 01:30:51;;;;;;;18.98;10.35;;;;;;;;;;5093365;28;20516;-54
2024/01/19 01:33:17;;;;;;;21.33;10.70;;;;;;;;;;5093054;28;20535;-52
2024/01/19 01:35:43;;;;;;;18.20;10.60;;;;;;;;;;5091914;28;20468;-55
2024/01/19 01:38:09;;;;;;;19.47;10.67;;;;;;;;;;5073535;28;20411;-54
2024/01/19 01:40:35;;;;;;;20.33;10.93;;;;;;;;;;5059117;28;20419;-52
2024/01/19 01:43:02;;;;;;;20.63;11.52;;;;;;;;;;5085278;28;20400;-52
2024/01/19 01:45:28;;;;;;;20.88;10.15;;;;;;;;;;5092665;28;20484;-53
2024/01/19 01:47:54;;;;;;;20.70;11.73;;;;;;;;;;5086725;28;20506;-51
2024/01/19 01:50:20;;;;;;;17.15;9.65;;;;;;;;;;5087280;28;20378;-54
2024/01/19 01:52:46;;;;;;;15.95;9.20;;;;;;;;;;5091660;28;20763;-54
2024/01/19 01:55:13;;;;;;;16.77;10.02;;;;;;;;;;5091637;28;20406;-53
2024/01/19 01:57:40;;;;;;;18.00;9.07;;;;;;;;;;5093176;28;20382;-53
2024/01/19 02:00:08;;;;;;;16.80;9.00;;;;;;;;;;5092189;28;20689;-54
2024/01/19 02:02:34;;;;;;;18.98;9.45;;;;;;;;;;5093488;28;21001;-52
2024/01/19 02:05:00;;;;;;;19.00;9.37;;;;;;;;;;5088622;28;20449;-49
2024/01/19 02:07:26;;;;;;;15.40;9.32;;;;;;;;;;5092689;28;20818;-52
2024/01/19 02:09:52;;;;;;;20.00;10.25;;;;;;;;;;5090985;28;20398;-49
2024/01/19 02:12:18;;;;;;;20.52;9.20;;;;;;;;;;5079181;28;20481;-50
2024/01/19 02:14:44;;;;;;;17.88;9.43;;;;;;;;;;5092345;28;20417;-50
2024/01/19 02:17:10;;;;;;;16.73;10.13;;;;;;;;;;5092425;28;20397;-75
2024/01/19 02:19:36;;;;;;;18.52;9.90;;;;;;;;;;5091644;28;20759;-54
2024/01/19 02:22:03;;;;;;;20.73;9.15;;;;;;;;;;5091571;28;20390;-52
2024/01/19 02:24:29;;;;;;;17.27;8.83;;;;;;;;;;5091454;28;20417;-52
2024/01/19 02:26:55;;;;;;;18.15;8.90;;;;;;;;;;5092707;28;20866;-53
2024/01/19 02:29:21;;;;;;;14.07;8.05;;;;;;;;;;5090214;28;20420;-52
2024/01/19 02:31:47;;;;;;;18.23;8.93;;;;;;;;;;5091793;28;20469;-54
2024/01/19 02:34:13;;;;;;;18.02;9.40;;;;;;;;;;5091835;28;20390;-53
2024/01/19 02:36:39;;;;;;;17.52;8.38;;;;;;;;;;5085411;28;20398;-57
2024/01/19 02:39:05;;;;;;;15.85;7.93;;;;;;;;;;5073830;28;20416;-57
2024/01/19 02:41:31;;;;;;;15.95;7.90;;;;;;;;;;5086234;28;20864;-56
2024/01/19 02:43:57;;;;;;;12.60;7.22;;;;;;;;;;5090237;28;20416;-57
2024/01/19 02:46:23;;;;;;;16.85;7.22;;;;;;;;;;5089361;28;20402;-58
2024/01/19 02:48:49;;;;;;;17.30;7.03;;;;;;;;;;5082025;28;20895;-56
2024/01/19 02:51:15;;;;;;;16.33;7.28;;;;;;;;;;5090931;28;20470;-57
2024/01/19 02:53:41;;;;;;;14.23;6.78;;;;;;;;;;5092293;28;20375;-57
2024/01/19 02:56:07;;;;;;;15.75;6.97;;;;;;;;;;5091023;28;20402;-57
2024/01/19 02:58:34;;;;;;;14.07;7.07;;;;;;;;;;5090327;28;20408;-55
2024/01/19 03:01:00;;;;;;;13.88;6.80;;;;;;;;;;5076426;28;20465;-58
2024/01/19 03:03:26;;;;;;;13.27;6.70;;;;;;;;;;5091618;28;20389;-54
2024/01/19 03:05:52;;;;;;;17.83;7.03;;;;;;;;;;5084789;28;20406;-58
2024/01/19 03:08:18;;;;;;;11.70;6.40;;;;;;;;;;5092142;28;20509;-57
2024/01/19 03:10:44;;;;;;;13.47;6.27;;;;;;;;;;5080997;28;20401;-57
2024/01/19 03:13:10;;;;;;;14.40;5.97;;;;;;;;;;5085693;28;20408;-58
2024/01/19 03:15:36;;;;;;;13.93;6.20;;;;;;;;;;5090957;28;20775;-58
2024/01/19 03:18:02;;;;;;;15.68;6.40;;;;;;;;;;5089108;28;20729;-57
2024/01/19 03:20:28;;;;;;;15.02;6.40;;;;;;;;;;5091716;28;20378;-58
2024/01/19 03:22:54;;;;;;;14.32;6.90;;;;;;;;;;5092011;28;20386;-58
2024/01/19 03:25:20;;;;;;;12.48;6.95;;;;;;;;;;5091201;28;20431;-57
2024/01/19 03:27:46;;;;;;;16.05;6.72;;;;;;;;;;5091884;28;20891;-58
2024/01/19 03:30:12;;;;;;;16.45;7.57;;;;;;;;;;5073742;28;20462;-58
2024/01/19 03:32:38;;;;;;;13.73;6.53;;;;;;;;;;5106890;28;20404;-56
2024/01/19 03:35:04;;;;;;;15.60;6.77;;;;;;;;;;5083415;28;20740;-57
2024/01/19 03:37:30;;;;;;;12.32;6.25;;;;;;;;;;5091662;28;20378;-58
2024/01/19 03:39:56;;;;;;;13.52;5.93;;;;;;;;;;5091545;28;20370;-57
2024/01/19 03:42:22;;;;;;;12.32;5.65;;;;;;;;;;5086493;28;20378;-57
2024/01/19 03:44:48;;;;;;;13.00;7.03;;;;;;;;;;5091283;28;20381;-51
2024/01/19 03:47:14;;;;;;;11.18;5.70;;;;;;;;;;5091526;28;20377;-53
2024/01/19 03:49:40;;;;;;;16.42;6.35;;;;;;;;;;5085230;28;20413;-49
2024/01/19 03:52:07;;;;;;;13.85;6.80;;;;;;;;;;5089893;28;20397;-53
2024/01/19 03:54:34;;;;;;;13.50;6.85;;;;;;;;;;5090517;28;20431;-50
2024/01/19 03:57:01;;;;;;;12.40;6.75;;;;;;;;;;5090472;28;20401;-50
2024/01/19 03:59:27;;;;;;;15.85;6.30;;;;;;;;;;5082451;28;20478;-51
2024/01/19 04:01:53;;;;;;;13.48;6.38;;;;;;;;;;5083111;28;20394;-51
2024/01/19 04:04:19;;;;;;;14.55;6.20;;;;;;;;;;5090489;28;20404;-52
2024/01/19 04:06:45;;;;;;;11.68;6.00;;;;;;;;;;5088607;28;20409;-50
2024/01/19 04:09:11;;;;;;;11.27;6.15;;;;;;;;;;5086977;28;20455;-50
2024/01/19 04:11:37;;;;;;;12.20;5.53;;;;;;;;;;5077596;28;20400;-50
2024/01/19 04:14:03;;;;;;;11.27;5.93;;;;;;;;;;5085848;28;20401;-50
2024/01/19 04:16:29;;;;;;;12.17;5.73;;;;;;;;;;5089951;28;20406;-53
2024/01/19 04:18:55;;;;;;;11.60;5.50;;;;;;;;;;5088757;28;20501;-50
2024/01/19 04:21:21;;;;;;;13.40;5.97;;;;;;;;;;5084055;28;20406;-55
2024/01/19 04:23:47;;;;;;;11.90;5.85;;;;;;;;;;5085762;28;20798;-50
2024/01/19 04:26:13;;;;;;;11.30;5.78;;;;;;;;;;5087542;28;20764;-50
2024/01/19 04:28:39;;;;;;;10.32;5.40;;;;;;;;;;5088396;28;20496;-53
2024/01/19 04:31:06;;;;;;;9.52;5.15;;;;;;;;;;5071486;28;21271;-52
2024/01/19 04:33:32;;;;;;;11.55;5.40;;;;;;;;;;5090939;28;20374;-52
2024/01/19 04:35:58;;;;;;;10.98;5.45;;;;;;;;;;5093939;28;20471;-50
2024/01/19 04:38:24;;;;;;;11.90;5.75;;;;;;;;;;5088388;28;20401;-52
2024/01/19 04:40:50;;;;;;;11.40;5.30;;;;;;;;;;5082414;28;20973;-50
2024/01/19 04:43:17;;;;;;;10.68;4.90;;;;;;;;;;5072026;28;20402;-54
2024/01/19 04:45:43;;;;;;;11.27;5.00;;;;;;;;;;5089911;28;20886;-52
2024/01/19 04:48:09;;;;;;;13.80;5.70;;;;;;;;;;5090162;28;20463;-50
2024/01/19 04:50:35;;;;;;;10.23;5.20;;;;;;;;;;5089101;28;20390;-48
2024/01/19 04:53:01;;;;;;;7.72;4.50;;;;;;;;;;5089046;28;20393;-50
2024/01/19 04:55:27;;;;;;;13.48;4.80;;;;;;;;;;5088739;28;20763;-55
2024/01/19 04:57:53;;;;;;;8.05;4.25;;;;;;;;;;5088760;28;20406;-54
2024/01/19 05:00:21;;;;;;;8.65;3.97;;;;;;;;;;5087506;28;20398;-53
2024/01/19 05:02:47;;;;;;;7.70;3.58;;;;;;;;;;5083501;28;20460;-52
2024/01/19 05:05:13;;;;;;;10.15;4.35;;;;;;;;;;5087010;28;20954;-52
2024/01/19 05:07:39;;;;;;;9.43;4.40;;;;;;;;;;5088063;28;20413;-54
2024/01/19 05:10:06;;;;;;;9.07;3.60;;;;;;;;;;5089787;28;20382;-52
2024/01/19 05:12:32;;;;;;;7.47;3.53;;;;;;;;;;5090243;28;20885;-51
2024/01/19 05:14:58;;;;;;;13.38;6.07;;;;;;;;;;5085038;28;20418;-53
2024/01/19 05:17:24;;;;;;;10.67;3.60;;;;;;;;;;5090178;28;20546;-54
2024/01/19 05:19:50;;;;;;;5.87;3.57;;;;;;;;;;5089649;28;20389;-50
2024/01/19 05:22:16;;;;;;;8.13;3.63;;;;;;;;;;5089296;28;20385;-50
2024/01/19 05:24:42;;;;;;;11.27;3.92;;;;;;;;;;5087597;28;20455;-50
2024/01/19 05:27:08;;;;;;;7.40;3.13;;;;;;;;;;5090035;28;20404;-52
2024/01/19 05:29:34;;;;;;;9.45;3.60;;;;;;;;;;5083081;28;20508;-49
2024/01/19 05:32:00;;;;;;;19.57;12.03;;;;;;;;;;5082089;28;20468;-49
2024/01/19 05:34:26;;;;;;;7.80;3.78;;;;;;;;;;5089022;28;20481;-51
2024/01/19 05:36:52;;;;;;;7.65;3.28;;;;;;;;;;5089686;28;20375;-54
2024/01/19 05:39:18;;;;;;;7.88;3.90;;;;;;;;;;5089949;28;20389;-53
2024/01/19 05:41:44;;;;;;;9.23;3.63;;;;;;;;;;5085164;28;20398;-53
2024/01/19 05:44:10;;;;;;;8.90;3.55;;;;;;;;;;5075900;28;20428;-52
2024/01/19 05:46:36;;;;;;;8.13;3.17;;;;;;;;;;5083317;28;20413;-50
2024/01/19 05:49:02;;;;;;;8.70;3.08;;;;;;;;;;5087386;28;20411;-52
2024/01/19 05:51:28;;;;;;;7.68;3.58;;;;;;;;;;5075414;28;20370;-52
2024/01/19 05:53:54;;;;;;;8.45;3.03;;;;;;;;;;5084408;28;20445;-51
2024/01/19 05:56:20;;;;;;;7.05;3.22;;;;;;;;;;5088365;28;20402;-53
2024/01/19 05:58:46;;;;;;;7.97;3.58;;;;;;;;;;5090056;28;20410;-53
2024/01/19 06:01:12;;;;;;;7.57;2.92;;;;;;;;;;5092302;28;20448;-49
2024/01/19 06:03:38;;;;;;;5.63;3.20;;;;;;;;;;5088547;28;20405;-49
2024/01/19 06:06:05;;;;;;;10.10;3.70;;;;;;;;;;5082659;28;20420;-53
2024/01/19 06:08:31;;;;;;;12.07;3.53;;;;;;;;;;5090122;28;20500;-53
2024/01/19 06:10:57;;;;;;;8.15;3.38;;;;;;;;;;5087900;28;20417;-54
2024/01/19 06:13:24;;;;;;;7.60;3.30;;;;;;;;;;5091216;28;20410;-51
2024/01/19 06:15:50;;;;;;;10.00;3.30;;;;;;;;;;5088862;28;20382;-55
2024/01/19 06:18:16;;;;;;;9.52;3.17;;;;;;;;;;5076584;28;20376;-54
2024/01/19 06:20:42;;;;;;;8.70;3.50;;;;;;;;;;5079443;28;20378;-53
2024/01/19 06:23:09;;;;;;;10.30;3.47;;;;;;;;;;5088125;28;20413;-55
2024/01/19 06:25:35;;;;;;;10.32;3.50;;;;;;;;;;5089046;28;20734;-53
2024/01/19 06:28:01;;;;;;;10.17;3.63;;;;;;;;;;5087465;28;20910;-53
2024/01/19 06:30:27;;;;;;;10.27;3.90;;;;;;;;;;5069917;28;20426;-51
2024/01/19 06:32:53;;;;;;;9.23;3.22;;;;;;;;;;5090001;28;20386;-54
2024/01/19 06:35:19;;;;;;;9.27;3.28;;;;;;;;;;5089217;28;20378;-53
2024/01/19 06:37:45;;;;;;;6.88;3.53;;;;;;;;;;5090221;28;20393;-55
2024/01/19 06:40:11;;;;;;;9.20;3.30;;;;;;;;;;5084770;28;20405;-52
2024/01/19 06:42:37;;;;;;;8.63;3.55;;;;;;;;;;5091389;28;20843;-53
2024/01/19 06:45:03;;;;;;;7.65;3.30;;;;;;;;;;5091832;28;20380;-53
2024/01/19 06:47:31;;;;;;;9.60;3.57;;;;;;;;;;5091517;28;20421;-54
2024/01/19 06:49:57;;;;;;;10.88;3.47;;;;;;;;;;5089429;28;20458;-53
2024/01/19 06:52:23;;;;;;;8.18;3.63;;;;;;;;;;5092813;28;20370;-54
2024/01/19 06:54:49;;;;;;;7.28;3.47;;;;;;;;;;5091886;28;20929;-55
2024/01/19 06:57:15;;;;;;;8.85;3.58;;;;;;;;;;5090889;28;20771;-53
2024/01/19 06:59:41;;;;;;;9.23;3.77;;;;;;;;;;5089005;28;20489;-55
2024/01/19 07:02:08;;;;;;;10.20;3.53;;;;;;;;;;5090961;28;20454;-54
2024/01/19 07:04:34;;;;;;;11.05;3.65;;;;;;;;;;5089521;28;20959;-53
2024/01/19 07:07:00;;;;;;;11.18;3.75;;;;;;;;;;5092265;28;20386;-54
2024/01/19 07:09:29;;;;;;;11.30;3.63;;;;;;;;;;5091667;28;20402;-54
2024/01/19 07:11:55;;;;;;;7.47;4.00;;;;;;;;;;5091470;28;20401;-51
2024/01/19 07:14:21;;;;;;;8.57;3.78;;;;;;;;;;5085980;28;20426;-52
2024/01/19 07:16:47;;;;;;;11.38;3.92;;;;;;;;;;5091528;28;20735;-57
2024/01/19 07:19:13;;;;;;;8.55;3.95;;;;;;;;;;5091348;28;20414;-56
2024/01/19 07:21:39;;;;;;;12.25;4.25;;;;;;;;;;5091311;28;20465;-56
2024/01/19 07:24:08;;;;;;;8.25;3.60;;;;;;;;;;5090854;28;20404;-57
2024/01/19 07:26:34;;;;;;;9.70;3.65;;;;;;;;;;5091109;28;20374;-57
2024/01/19 07:29:04;;;;;;;8.90;3.85;;;;;;;;;;5091040;28;20413;-57
2024/01/19 07:31:31;;;;;;;8.80;4.20;;;;;;;;;;5089089;28;20389;-57
2024/01/19 07:33:56;;;;;;;11.25;3.70;;;;;;;;;;5090746;28;20400;-57
2024/01/19 07:36:23;;;;;;;14.55;4.25;;;;;;;;;;5088235;28;20362;-57
2024/01/19 07:38:49;;;;;;;10.30;4.43;;;;;;;;;;5091003;28;20392;-56
2024/01/19 07:41:15;;;;;;;7.65;4.00;;;;;;;;;;5090875;28;20382;-57
2024/01/19 07:43:41;;;;;;;11.27;4.97;;;;;;;;;;5090669;28;20402;-57
2024/01/19 07:46:07;;;;;;;7.88;4.25;;;;;;;;;;5090537;28;20376;-56
2024/01/19 07:48:33;;;;;;;10.70;4.32;;;;;;;;;;5089157;28;20463;-54
2024/01/19 07:50:59;;;;;;;12.02;4.55;;;;;;;;;;5090769;28;20739;-53
2024/01/19 07:53:25;;;;;;;10.25;4.68;;;;;;;;;;5087943;28;20427;-55
2024/01/19 07:55:51;;;;;;;7.97;4.37;;;;;;;;;;5090509;28;20375;-55
2024/01/19 07:58:17;;;;;;;11.27;4.70;;;;;;;;;;5090868;28;20866;-56
2024/01/19 08:00:43;;;;;;;9.13;4.50;;;;;;;;;;5090412;28;20731;-56
2024/01/19 08:03:09;;;;;;;13.43;5.25;;;;;;;;;;5070469;28;20409;-54
2024/01/19 08:05:35;;;;;;;10.55;5.50;;;;;;;;;;5090414;28;20871;-56
2024/01/19 08:08:01;;;;;;;9.43;4.25;;;;;;;;;;5090417;28;20401;-52
2024/01/19 08:10:31;;;;;;;9.85;4.70;;;;;;;;;;5090409;28;20965;-57
2024/01/19 08:12:59;;;;;;;9.15;5.10;;;;;;;;;;5090074;28;20398;-57
2024/01/19 08:15:25;;;;;;;10.10;5.03;;;;;;;;;;5087688;28;20452;-57
2024/01/19 08:17:51;;;;;;;9.95;5.30;;;;;;;;;;5090487;28;20774;-56
2024/01/19 08:20:17;;;;;;;12.93;5.72;;;;;;;;;;5090203;28;20717;-57
2024/01/19 08:22:43;;;;;;;14.38;5.53;;;;;;;;;;5090344;28;20451;-58
2024/01/19 08:25:09;;;;;;;12.20;5.00;;;;;;;;;;5089964;28;20374;-53
2024/01/19 08:27:35;;;;;;;10.68;5.60;;;;;;;;;;5090262;28;20409;-54
2024/01/19 08:30:01;;;;;;;10.20;5.70;;;;;;;;;;5088528;28;20413;-54
2024/01/19 08:32:27;;;;;;;15.15;5.57;;;;;;;;;;5078875;28;20399;-54
2024/01/19 08:34:53;;;;;;;12.18;5.45;;;;;;;;;;5088977;28;20375;-53
2024/01/19 08:37:19;;;;;;;13.40;6.30;;;;;;;;;;5089929;28;20410;-53
2024/01/19 08:39:45;;;;;;;12.15;5.47;;;;;;;;;;5089294;28;20470;-55
2024/01/19 08:42:11;;;;;;;14.52;5.90;;;;;;;;;;5089943;28;20378;-54
2024/01/19 08:44:37;;;;;;;9.77;5.68;;;;;;;;;;5089647;28;20739;-54
2024/01/19 08:47:03;;;;;;;14.02;5.85;;;;;;;;;;5089866;28;20409;-55
2024/01/19 08:49:29;;;;;;;12.55;6.68;;;;;;;;;;5088107;28;20493;-55
2024/01/19 08:51:55;;;;;;;12.45;6.05;;;;;;;;;;5089945;28;20382;-54
2024/01/19 08:54:21;;;;;;;13.10;6.30;;;;;;;;;;5089512;28;20409;-55
2024/01/19 08:56:47;;;;;;;11.90;5.93;;;;;;;;;;5089624;28;20739;-55
2024/01/19 08:59:13;;;;;;;10.57;5.78;;;;;;;;;;5089820;28;20457;-55
2024/01/19 09:01:39;;;;;;;12.75;6.43;;;;;;;;;;5086548;28;20402;-53
2024/01/19 09:04:05;;;;;;;15.57;6.72;;;;;;;;;;5089268;28;20392;-54
2024/01/19 09:06:31;;;;;;;13.10;6.40;;;;;;;;;;5089754;28;20382;-54
2024/01/19 09:09:01;;;;;;;13.75;6.35;;;;;;;;;;5089647;28;20405;-54
2024/01/19 09:11:27;;;;;;;13.45;6.57;;;;;;;;;;5089338;28;20370;-54
2024/01/19 09:13:53;;;;;;;13.82;6.88;;;;;;;;;;5089275;28;20404;-54
2024/01/19 09:16:19;;;;;;;13.87;6.80;;;;;;;;;;5085114;28;20492;-53
2024/01/19 09:18:45;;;;;;;13.13;6.90;;;;;;;;;;5089759;28;20767;-52
2024/01/19 09:21:17;;;;;;;11.48;6.95;;;;;;;;;;5089807;28;20408;-53
2024/01/19 09:23:44;;;;;;;12.48;6.78;;;;;;;;;;5090112;28;20431;-53
2024/01/19 09:26:19;;;;;;;14.82;7.03;;;;;;;;;;5093345;28;20754;-55
2024/01/19 09:28:45;;;;;;;10.60;6.20;;;;;;;;;;5082268;28;20809;-51
2024/01/19 09:31:11;;;;;;;15.38;6.28;;;;;;;;;;5093547;28;20382;-55
2024/01/19 09:33:37;;;;;;;12.77;6.40;;;;;;;;;;5091682;28;20374;-51
2024/01/19 09:36:03;;;;;;;13.00;6.40;;;;;;;;;;5093661;28;20724;-51
2024/01/19 09:38:29;;;;;;;11.25;6.22;;;;;;;;;;5093152;28;20403;-53
2024/01/19 09:41:01;;;;;;;12.85;6.05;;;;;;;;;;5080225;28;20526;-52
2024/01/19 09:43:28;;;;;;;13.77;6.25;;;;;;;;;;5093103;28;20373;-52
2024/01/19 09:45:54;;;;;;;9.65;5.97;;;;;;;;;;5093294;28;20393;-55
2024/01/19 09:48:24;;;;;;;12.27;5.60;;;;;;;;;;5093366;28;20916;-53
2024/01/19 09:50:51;;;;;;;10.77;6.05;;;;;;;;;;5091470;28;20394;-54
2024/01/19 09:53:37;;;;;;;12.43;6.05;;;;;;;;;;5092695;28;20397;-54
2024/01/19 09:56:03;;;;;;;12.10;6.07;;;;;;;;;;5093026;28;20419;-55
2024/01/19 09:58:30;;;;;;;9.65;5.82;;;;;;;;;;5092968;28;20374;-55
2024/01/19 10:00:56;;;;;;;12.80;6.22;;;;;;;;;;5093101;28;20780;-54
2024/01/19 10:03:22;;;;;;;10.75;6.00;;;;;;;;;;5089975;28;20417;-54
2024/01/19 10:05:51;;;;;;;13.18;6.18;;;;;;;;;;5088468;28;20428;-54
2024/01/19 10:08:17;;;;;;;12.93;6.30;;;;;;;;;;5093176;28;20479;-54
2024/01/19 10:10:43;;;;;;;15.10;5.93;;;;;;;;;;5092876;28;20940;-54
2024/01/19 10:13:10;;;;;;;13.23;6.30;;;;;;;;;;5092479;28;20497;-53
2024/01/19 10:15:36;;;;;;;12.63;6.38;;;;;;;;;;5092624;28;20380;-51
2024/01/19 10:18:03;;;;;;;10.85;6.50;;;;;;;;;;5090978;28;20813;-50
2024/01/19 10:20:30;;;;;;;13.45;6.03;;;;;;;;;;5092506;28;20501;-54
2024/01/19 10:22:56;;;;;;;11.35;5.75;;;;;;;;;;5092925;28;20378;-52
2024/01/19 10:25:21;;;;;;;10.00;5.88;;;;;;;;;;5092042;28;20851;-51
2024/01/19 10:27:50;;;;;;;11.80;5.70;;;;;;;;;;5092498;28;20401;-52
2024/01/19 10:30:16;;;;;;;10.80;5.47;;;;;;;;;;5089780;28;20390;-55
2024/01/19 10:32:43;;;;;;;12.30;5.57;;;;;;;;;;5090103;28;20480;-55
2024/01/19 10:35:18;;;;;;;10.82;5.55;;;;;;;;;;5092152;28;20403;-58
2024/01/19 10:37:44;;;;;;;8.85;5.07;;;;;;;;;;5092239;28;20861;-55
2024/01/19 10:40:13;;;;;;;11.02;5.38;;;;;;;;;;5092248;28;20373;-54
2024/01/19 10:42:40;;;;;;;9.33;5.33;;;;;;;;;;5092152;28;20375;-54
2024/01/19 10:45:16;;;;;;;11.07;5.77;;;;;;;;;;5089491;28;20464;-54
2024/01/19 10:47:43;;;;;;;13.32;6.18;;;;;;;;;;5091943;28;20409;-52
2024/01/19 10:50:11;;;;;;;14.38;6.18;;;;;;;;;;5092413;28;20713;-54
2024/01/19 10:52:39;;;;;;;11.20;5.60;;;;;;;;;;5091926;28;20389;-52
2024/01/19 10:55:05;;;;;;;11.02;5.97;;;;;;;;;;5091843;28;20374;-52
2024/01/19 10:57:31;;;;;;;12.52;5.85;;;;;;;;;;5091784;28;20378;-53
2024/01/19 10:59:57;;;;;;;10.93;5.10;;;;;;;;;;5090739;28;20394;-54
2024/01/19 11:02:24;;;;;;;12.32;5.68;;;;;;;;;;5091120;28;20459;-54
2024/01/19 11:04:51;;;;;;;12.10;5.55;;;;;;;;;;5091341;28;20382;-53
2024/01/19 11:07:17;;;;;;;9.87;5.27;;;;;;;;;;5091543;28;20923;-53
2024/01/19 11:09:43;;;;;;;12.13;5.53;;;;;;;;;;5091637;28;20413;-54
2024/01/19 11:12:11;;;;;;;10.97;5.00;;;;;;;;;;5091278;28;20721;-55
2024/01/19 11:14:38;;;;;;;10.40;4.77;;;;;;;;;;5091166;28;20402;-54
2024/01/19 11:17:04;;;;;;;15.45;4.90;;;;;;;;;;5087469;28;20397;-55
2024/01/19 11:19:31;;;;;;;9.75;4.30;;;;;;;;;;5091377;28;20384;-55
2024/01/19 11:21:57;;;;;;;9.27;4.63;;;;;;;;;;5091403;28;20457;-56
2024/01/19 11:24:26;;;;;;;11.75;4.90;;;;;;;;;;5090963;28;20378;-55
2024/01/19 11:27:15;;;;;;;9.07;4.15;;;;;;;;;;5091052;28;20465;-52
2024/01/19 11:29:42;;;;;;;7.50;3.80;;;;;;;;;;5090906;28;20413;-56
2024/01/19 11:32:09;;;;;;;7.38;4.22;;;;;;;;;;5071007;28;20501;-55
2024/01/19 11:34:49;;;;;;;9.30;4.07;;;;;;;;;;5089069;28;20420;-54
2024/01/19 11:37:39;;;;;;;10.18;3.90;;;;;;;;;;5090715;28;20374;-56
2024/01/19 11:40:05;;;;;;;10.27;3.80;;;;;;;;;;5080469;28;20388;-55
2024/01/19 11:42:34;;;;;;;6.70;3.53;;;;;;;;;;5088739;28;20394;-56
2024/01/19 11:45:00;;;;;;;7.28;3.42;;;;;;;;;;5090698;28;20381;-53
2024/01/19 11:47:35;;;;;;;5.35;3.05;;;;;;;;;;5090399;28;20450;-52
2024/01/19 11:50:04;;;;;;;7.38;3.35;;;;;;;;;;5080986;28;20838;-50
2024/01/19 11:52:32;;;;;;;9.95;3.17;;;;;;;;;;5090652;28;20381;-51
2024/01/19 11:55:00;;;;;;;8.43;3.37;;;;;;;;;;5088481;28;20401;-49
2024/01/19 11:57:29;;;;;;;9.07;3.20;;;;;;;;;;5090732;28;20377;-49
2024/01/19 11:59:55;;;;;;;8.30;3.10;;;;;;;;;;5090690;28;20375;-50
2024/01/19 12:02:21;;;;;;;7.93;3.00;;;;;;;;;;5090386;28;20396;-48
2024/01/19 12:04:50;;;;;;;8.93;2.90;;;;;;;;;;5090223;28;20382;-49
2024/01/19 12:07:17;;;;;;;8.20;3.10;;;;;;;;;;5090539;28;20875;-49
2024/01/19 12:09:43;;;;;;;7.28;2.65;;;;;;;;;;5070877;28;20423;-48
2024/01/19 12:12:09;;;;;;;7.35;3.00;;;;;;;;;;5088442;28;20394;-51
2024/01/19 12:14:35;;;;;;;6.75;2.47;;;;;;;;;;5089813;28;20859;-51
2024/01/19 12:17:01;;;;;;;8.57;2.70;;;;;;;;;;5088346;28;20374;-49
2024/01/19 12:19:27;;;;;;;7.05;2.90;;;;;;;;;;5090444;28;20782;-51
2024/01/19 12:21:57;;;;;;;8.77;2.67;;;;;;;;;;5090209;28;20413;-51
2024/01/19 12:24:23;;;;;;;5.45;2.60;;;;;;;;;;5090035;28;20394;-49
2024/01/19 12:26:49;;;;;;;6.72;2.53;;;;;;;;;;5090169;28;20370;-49
2024/01/19 12:29:27;;;;;;;8.57;3.03;;;;;;;;;;5090157;28;20405;-53
2024/01/19 12:32:07;;;;;;;6.63;2.77;;;;;;;;;;5089625;28;20405;-52
2024/01/19 12:34:33;;;;;;;7.30;3.58;;;;;;;;;;5089776;28;20377;-54
2024/01/19 12:36:59;;;;;;;6.03;2.95;;;;;;;;;;5090170;28;20381;-54
2024/01/19 12:39:27;;;;;;;10.65;3.28;;;;;;;;;;5090091;28;20863;-54
2024/01/19 12:42:00;;;;;;;12.33;3.63;;;;;;;;;;5089752;28;20373;-53
2024/01/19 12:44:26;;;;;;;8.48;3.25;;;;;;;;;;5089642;28;20449;-51
2024/01/19 12:46:52;;;;;;;8.23;2.95;;;;;;;;;;5088180;28;20493;-51
2024/01/19 12:49:18;;;;;;;8.57;2.95;;;;;;;;;;5089863;28;20496;-52
2024/01/19 12:51:44;;;;;;;8.35;3.28;;;;;;;;;;5090170;28;20449;-53
2024/01/19 12:54:14;;;;;;;8.85;3.10;;;;;;;;;;5084294;28;20370;-51
2024/01/19 12:56:40;;;;;;;7.68;3.10;;;;;;;;;;5089751;28;20366;-51
2024/01/19 12:59:10;;;;;;;7.63;3.25;;;;;;;;;;5090375;28;20386;-52
2024/01/19 13:01:36;;;;;;;6.82;2.85;;;;;;;;;;5092431;28;20394;-51
2024/01/19 13:04:02;;;;;;;9.27;2.95;;;;;;;;;;5093520;28;20382;-51
2024/01/19 13:06:28;;;;;;;8.68;3.47;;;;;;;;;;5094005;28;20385;-57
2024/01/19 13:08:54;;;;;;;7.43;2.92;;;;;;;;;;5090454;28;20470;-56
2024/01/19 13:11:23;;;;;;;6.90;3.30;;;;;;;;;;5084390;28;20393;-56
2024/01/19 13:14:19;;;;;;;8.48;3.45;;;;;;;;;;5093230;28;20875;-58
2024/01/19 13:16:52;;;;;;;10.00;3.47;;;;;;;;;;5073234;28;20515;-58
2024/01/19 13:19:18;;;;;;;11.52;4.32;;;;;;;;;;5073612;28;20736;-56
2024/01/19 13:21:44;;;;;;;9.90;4.00;;;;;;;;;;5093441;28;20424;-59
2024/01/19 13:24:10;;;;;;;9.50;4.27;;;;;;;;;;5093214;28;20366;-57
2024/01/19 13:26:36;;;;;;;10.90;4.15;;;;;;;;;;5092671;28;20374;-58
2024/01/19 13:29:02;;;;;;;11.17;4.30;;;;;;;;;;5093117;28;20882;-58
2024/01/19 13:31:28;;;;;;;11.47;4.67;;;;;;;;;;5093573;28;20793;-58
2024/01/19 13:33:54;;;;;;;11.20;4.20;;;;;;;;;;5092843;28;20511;-57
2024/01/19 13:36:20;;;;;;;10.77;4.65;;;;;;;;;;5091935;28;20451;-57
2024/01/19 13:38:46;;;;;;;11.38;4.53;;;;;;;;;;5092532;28;20467;-58
2024/01/19 13:41:14;;;;;;;12.40;4.20;;;;;;;;;;5093012;28;20704;-58
2024/01/19 13:43:41;;;;;;;11.82;4.78;;;;;;;;;;5074358;28;20389;-56
2024/01/19 13:46:08;;;;;;;14.68;4.68;;;;;;;;;;5090216;28;20423;-58
2024/01/19 13:48:34;;;;;;;11.25;4.68;;;;;;;;;;5092749;28;20417;-58
2024/01/19 13:51:00;;;;;;;12.80;4.97;;;;;;;;;;5093204;28;20374;-57
2024/01/19 13:53:26;;;;;;;9.43;4.57;;;;;;;;;;5091468;28;20908;-56
2024/01/19 13:55:52;;;;;;;7.97;4.28;;;;;;;;;;5092972;28;20371;-57
2024/01/19 13:58:18;;;;;;;9.20;4.80;;;;;;;;;;5093467;28;20717;-56
2024/01/19 14:00:44;;;;;;;10.03;5.07;;;;;;;;;;5087454;28;20786;-55
2024/01/19 14:03:13;;;;;;;12.70;5.23;;;;;;;;;;5092804;28;20374;-57
2024/01/19 14:05:40;;;;;;;12.77;4.83;;;;;;;;;;5079511;28;20366;-58
2024/01/19 14:08:08;;;;;;;14.30;5.23;;;;;;;;;;5093016;28;20385;-56
2024/01/19 14:10:34;;;;;;;13.45;5.43;;;;;;;;;;5092292;28;20851;-58
2024/01/19 14:13:00;;;;;;;14.20;5.68;;;;;;;;;;5090457;28;20869;-58
2024/01/19 14:15:26;;;;;;;13.77;5.20;;;;;;;;;;5092673;28;20374;-53
2024/01/19 14:17:52;;;;;;;13.07;5.20;;;;;;;;;;5092632;28;21119;-52
2024/01/19 14:20:18;;;;;;;13.90;4.95;;;;;;;;;;5090510;28;20402;-53
2024/01/19 14:22:43;;;;;;;12.45;5.43;;;;;;;;;;5090205;28;20459;-52
2024/01/19 14:25:09;;;;;;;13.77;5.20;;;;;;;;;;5091946;28;20882;-53
2024/01/19 14:27:36;;;;;;;11.90;5.20;;;;;;;;;;5089705;28;20736;-50
2024/01/19 14:30:02;;;;;;;13.60;5.47;;;;;;;;;;5091150;28;20413;-50